Česky Dansk Deutsch English Español Suomi Français Magyar Italiano Nederlands norsk Polski Português svenska Türkçe

 

Het Weer

Marib (Yemen)

04:00, 19 maart 2015 (GMT)

NWNNE
WE
SWSSE
Home            
Marib Al-Hazm Sana'A Ataq Taiz Sa'Ada / Sadah Najran Hodeidah Mokha Sharurah Aden Mokha Gizan Sayun Assab Khamis Mushait Abha Riyan Djibouti \ Ambouli Djibouti Berbera Wadi Al Dawasser Airport Bisha

Om een weerknop op uw website of weblog te plaatsen, copieer onderstaande code en plak die in uw pagina. In het eerste vakje staat HTML-code, in het tweede vakje UBB-code.


Add to Google

Details

Wind speed:1 bf, 2 kn, 1.0 m/s, 2.3 miles/h, 3.7 km/h
Wind direction:W, 270°
Celková viditeľnosť: 3000 m, 3.0 km, 9843 ft, 1.9 miles
Teplota:22°C, 72°F
Gefühlte Temperatur:24°C, 75°F
Rosným:-2°C, 28°F
Atmosférický tlak:1013 hPa, 759.8 mmHg, 29.91 inHg, 1.000 atm
Relatívna vlhkosť vzduchu:19.9 %
METAR:OYMB 190400Z 27002KT 3000 NSC 22/M02 Q1013

Snelkoppelingen

Actuele weersinformatie van de hele wereld. Voeg locaties toe met het plus (+) symbool. Deze snelkoppelingen kunnen worden toegevoegd aan Google.

Lid van de Technetium groep

website free tracking
StatCounter NetStat W3C Validator

17-04-2021 09:44:57
astro.technetium.be money.technetium.be phote.technetium.be tafeltennistafel.technetium.be www.ligfiets.net